Time;durP1;ratioP1;P1;durP2;ratioP2;P2;SDS_P1;SDS_P2;PMS_P1;PMS_P2;Temp;Humidity;BMP_temperature;BMP_pressure;BME280_temperature;BME280_humidity;BME280_pressure;Samples;Min_cycle;Max_cycle;Signal;HPM_P1;HPM_P2
2021/08/17 00:00:35;;;;;;;0.93;0.83;;;13.70;99.90;;;12.21;100.00;100658.81;2764130;30;136607;-87
2021/08/17 00:03:04;;;;;;;6.83;1.37;;;13.70;99.90;;;12.21;100.00;100649.94;2743872;30;133516;-84
2021/08/17 00:05:33;;;;;;;1.17;0.77;;;13.60;99.90;;;12.19;100.00;100635.84;2835258;30;132781;-82
2021/08/17 00:08:04;;;;;;;3.00;1.07;;;13.60;99.90;;;12.19;100.00;100627.78;2778951;30;133634;-89
2021/08/17 00:10:36;;;;;;;1.53;1.00;;;13.60;99.90;;;12.21;100.00;100633.84;2799651;30;133502;-85
2021/08/17 00:13:06;;;;;;;1.80;1.03;;;13.60;99.90;;;12.13;100.00;100623.88;2667891;30;133610;-88
2021/08/17 00:18:01;;;;;;;1.40;0.83;;;13.60;99.90;;;12.17;100.00;100622.56;2779158;30;133064;-83
2021/08/17 00:20:33;;;;;;;1.63;1.10;;;13.60;99.90;;;12.13;100.00;100617.69;2664350;30;133597;31
2021/08/17 00:23:02;;;;;;;1.20;1.10;;;13.60;99.90;;;12.13;100.00;100615.84;2693962;30;133092;-81
2021/08/17 00:25:31;;;;;;;3.20;1.53;;;13.50;99.90;;;12.15;100.00;100613.00;2791628;30;135260;-89
2021/08/17 00:30:31;;;;;;;3.00;1.10;;;13.50;99.90;;;12.12;100.00;100616.00;2745191;30;132376;-83
2021/08/17 00:33:01;;;;;;;5.03;1.30;;;13.50;99.90;;;12.09;100.00;100614.50;2740176;30;133675;31
2021/08/17 00:35:30;;;;;;;1.30;1.07;;;13.50;99.90;;;12.07;100.00;100629.06;2641447;30;131208;-85
2021/08/17 00:37:59;;;;;;;2.23;1.17;;;13.50;99.90;;;12.05;100.00;100628.38;2644506;30;133072;-87
2021/08/17 00:40:28;;;;;;;1.10;1.00;;;13.40;99.90;;;12.06;100.00;100622.84;2672238;38;138990;-89
2021/08/17 00:42:57;;;;;;;0.87;0.80;;;13.40;99.90;;;12.05;100.00;100626.53;2730247;30;132944;-83
2021/08/17 00:46:05;;;;;;;4.20;1.50;;;13.40;99.90;;;12.03;100.00;100631.22;2631989;30;137243;-82
2021/08/17 00:48:53;;;;;;;1.20;1.10;;;13.40;99.90;;;11.98;100.00;100633.53;2781401;30;132363;31
2021/08/17 00:52:06;;;;;;;4.40;0.90;;;13.40;99.90;;;11.99;100.00;100651.28;2742781;38;142300;-88
2021/08/17 00:57:59;;;;;;;1.43;0.93;;;13.40;99.90;;;12.03;100.00;100641.94;2780658;30;131335;-91
2021/08/17 01:03:57;;;;;;;2.20;1.60;;;13.40;99.90;;;12.00;100.00;100647.63;2742562;30;131652;-84
2021/08/17 01:06:34;;;;;;;0.90;0.90;;;13.40;99.90;;;11.99;100.00;100648.59;2715552;30;133369;-86
2021/08/17 01:09:03;;;;;;;1.30;1.20;;;13.30;99.90;;;11.97;100.00;100634.53;2698348;30;132991;-85
2021/08/17 01:11:33;;;;;;;3.00;1.45;;;13.30;99.90;;;11.96;100.00;100643.59;2717823;30;133466;31
2021/08/17 01:14:41;;;;;;;2.30;1.33;;;13.30;99.90;;;12.00;100.00;100642.25;2700212;38;132138;31
2021/08/17 01:17:55;;;;;;;2.57;1.37;;;13.30;99.90;;;12.02;100.00;100624.16;2622875;30;132891;-81
2021/08/17 01:21:18;;;;;;;6.77;1.83;;;13.30;99.90;;;12.00;100.00;100604.69;2742251;30;134497;-88
2021/08/17 01:24:31;;;;;;;2.07;1.67;;;13.30;99.90;;;11.98;100.00;100603.22;2793014;30;132410;-85
2021/08/17 01:27:21;;;;;;;1.60;1.20;;;13.30;99.90;;;11.98;100.00;100592.47;2625199;30;137719;31
2021/08/17 01:30:41;;;;;;;4.55;1.90;;;13.30;99.90;;;12.04;100.00;100597.19;2745736;30;134421;31
2021/08/17 01:33:55;;;;;;;1.97;1.00;;;13.30;99.90;;;12.03;100.00;100577.56;2720553;30;132670;-83
2021/08/17 01:37:09;;;;;;;1.47;1.03;;;13.30;99.90;;;12.05;100.00;100570.22;2831432;30;132807;-87
2021/08/17 01:43:02;;;;;;;3.30;1.37;;;13.30;99.90;;;12.06;100.00;100553.13;2722972;30;135412;-84
2021/08/17 01:46:22;;;;;;;1.50;1.23;;;13.40;99.90;;;12.10;100.00;100546.44;2749994;30;133279;-82
2021/08/17 01:49:35;;;;;;;2.03;1.57;;;13.40;99.90;;;12.10;100.00;100532.19;2631164;30;134193;-82
2021/08/17 01:55:30;;;;;;;2.40;1.50;;;13.40;99.90;;;12.01;100.00;100503.63;2681566;30;134598;-85
2021/08/17 01:58:18;;;;;;;2.05;1.20;;;13.50;99.90;;;12.03;100.00;100489.06;2681597;30;134028;31
2021/08/17 02:01:35;;;;;;;3.33;1.30;;;13.40;99.90;;;12.03;100.00;100498.97;2761007;30;132428;-86
2021/08/17 02:07:26;;;;;;;3.37;1.40;;;13.40;99.90;;;12.05;100.00;100487.06;2639491;30;132662;-83
2021/08/17 02:10:43;;;;;;;3.35;1.40;;;14.30;99.90;;;12.09;100.00;100475.03;2723812;30;133849;31
2021/08/17 02:13:23;;;;;;;2.97;1.50;;;13.40;99.90;;;12.10;100.00;100470.50;2631319;30;106721;-80
2021/08/17 02:15:53;;;;;;;2.80;1.20;;;14.40;99.90;;;12.12;100.00;100465.78;2667922;30;69151;-84
2021/08/17 02:18:25;;;;;;;2.23;1.57;;;13.50;99.90;;;12.05;100.00;100465.63;2742529;30;132468;-83
2021/08/17 02:20:54;;;;;;;2.67;1.73;;;13.50;99.90;;;12.03;100.00;100462.25;2681634;30;130805;-83
2021/08/17 02:23:23;;;;;;;2.70;1.23;;;13.50;99.90;;;12.05;100.00;100457.56;2637103;38;120305;-84
2021/08/17 02:25:54;;;;;;;1.60;1.30;;;13.40;99.90;;;11.99;100.00;100454.72;2656570;30;109276;31
2021/08/17 02:28:23;;;;;;;2.97;1.13;;;13.40;99.90;;;12.00;100.00;100448.31;2686831;30;119527;-84
2021/08/17 02:30:56;;;;;;;2.67;1.40;;;13.40;99.90;;;11.98;100.00;100443.16;2680638;30;107148;31
2021/08/17 02:33:28;;;;;;;1.30;1.20;;;13.40;99.90;;;11.97;100.00;100435.25;2656065;38;119807;-85
2021/08/17 02:36:00;;;;;;;1.93;1.00;;;13.30;99.90;;;11.95;100.00;100438.09;2709164;30;120604;31
2021/08/17 02:38:30;;;;;;;4.87;1.57;;;13.30;99.90;;;11.88;100.00;100432.53;2670537;38;129361;-83
2021/08/17 02:40:59;;;;;;;2.63;1.67;;;13.00;99.90;;;11.86;100.00;100436.41;2674505;38;104957;-82
2021/08/17 02:44:03;;;;;;;3.07;1.37;;;14.20;99.90;;;11.83;100.00;100437.56;2716798;30;109497;-85
2021/08/17 02:47:17;;;;;;;1.60;1.20;;;13.20;99.90;;;11.90;100.00;100434.22;2696607;30;31325;-85
2021/08/17 02:50:34;;;;;;;2.43;1.43;;;13.20;99.90;;;11.84;100.00;100420.47;2641971;30;95307;-83
2021/08/17 02:53:11;;;;;;;6.10;1.77;;;13.20;99.90;;;11.88;100.00;100431.69;2656985;30;131438;-84
2021/08/17 02:56:16;;;;;;;4.43;1.83;;;13.20;99.90;;;11.86;100.00;100429.19;2649098;30;131316;-82
2021/08/17 02:59:29;;;;;;;5.00;1.40;;;13.20;99.90;;;11.86;100.00;100423.00;2685850;38;128612;-84
2021/08/17 03:02:42;;;;;;;3.97;1.70;;;13.20;99.90;;;11.77;100.00;100411.38;2624257;38;129520;-82
2021/08/17 03:05:59;;;;;;;2.27;1.53;;;13.10;99.90;;;11.72;100.00;100421.75;2648774;30;132529;-81
2021/08/17 03:09:12;;;;;;;2.90;1.50;;;13.10;99.90;;;11.76;100.00;100427.63;2687915;30;132264;-81
2021/08/17 03:12:26;;;;;;;3.47;1.63;;;12.60;99.90;;;11.78;100.00;100436.34;2690759;30;132055;-82
2021/08/17 03:18:18;;;;;;;2.10;1.30;;;13.00;99.90;;;11.67;100.00;100431.25;2656289;30;129394;-85
2021/08/17 03:21:34;;;;;;;2.10;1.43;;;13.00;99.90;;;11.69;100.00;100422.06;2674445;30;131829;-82
2021/08/17 03:24:39;;;;;;;2.47;1.43;;;12.90;99.90;;;11.69;100.00;100422.06;2681229;30;131217;31
2021/08/17 03:27:52;;;;;;;1.87;1.40;;;12.80;99.90;;;11.71;100.00;100427.25;2750579;30;130940;-81
2021/08/17 03:30:31;;;;;;;2.97;1.30;;;13.20;99.90;;;11.70;100.00;100412.19;2668123;30;113629;-83
2021/08/17 03:33:35;;;;;;;3.17;1.63;;;12.80;99.90;;;11.66;100.00;100424.22;2678929;30;21561;-82
2021/08/17 03:36:52;;;;;;;2.40;1.40;;;12.80;99.90;;;11.67;100.00;100416.03;2698140;30;117866;-85
2021/08/17 03:40:06;;;;;;;4.90;1.73;;;12.90;99.90;;;11.74;100.00;100429.63;2720709;30;128098;-86
2021/08/17 03:43:19;;;;;;;2.83;1.87;;;12.90;99.90;;;11.81;100.00;100446.75;2722705;30;125861;-84
2021/08/17 03:46:33;;;;;;;7.63;1.67;;;13.90;99.90;;;11.85;100.00;100443.59;2699569;30;131495;-84
2021/08/17 03:49:46;;;;;;;5.03;1.73;;;12.90;99.90;;;11.92;100.00;100445.63;2419706;30;11924326;-87
2021/08/17 03:53:03;;;;;;;1.80;1.40;;;13.10;99.90;;;11.90;100.00;100429.69;2703010;30;132213;-87
2021/08/17 03:56:16;;;;;;;3.60;1.57;;;13.10;99.90;;;11.95;100.00;100442.63;2678692;30;123422;-86
2021/08/17 03:58:53;;;;;;;3.60;1.57;;;13.20;99.90;;;11.86;100.00;100417.63;2674252;30;126824;-86
2021/08/17 04:01:22;;;;;;;6.23;1.70;;;14.10;99.90;;;11.93;100.00;100441.94;2741587;30;131900;-84
2021/08/17 04:03:51;;;;;;;1.50;1.40;;;13.10;99.90;;;11.92;100.00;100445.63;2654565;30;133246;-84
2021/08/17 04:06:20;;;;;;;3.83;1.80;;;13.20;99.90;;;11.91;100.00;100446.63;2688820;30;130865;-86
2021/08/17 04:08:53;;;;;;;1.43;1.17;;;13.20;99.90;;;11.97;100.00;100457.56;2737161;30;131654;-84
2021/08/17 04:11:21;;;;;;;4.60;1.63;;;13.30;99.90;;;11.99;100.00;100450.16;2620157;30;131789;-84
2021/08/17 04:13:50;;;;;;;2.67;1.73;;;13.30;99.90;;;11.98;100.00;100451.19;2685294;30;128732;-85
2021/08/17 04:16:19;;;;;;;3.57;1.60;;;13.30;99.90;;;11.99;100.00;100452.03;2657169;30;131808;-82
2021/08/17 04:18:51;;;;;;;2.97;1.97;;;13.30;99.90;;;12.01;100.00;100453.53;2733976;30;129519;31
2021/08/17 04:21:19;;;;;;;3.40;1.70;;;13.40;99.90;;;12.04;100.00;100455.88;2703905;30;131757;-89
2021/08/17 04:23:52;;;;;;;2.60;1.40;;;13.40;99.90;;;12.01;100.00;100460.72;2647148;30;130620;31
2021/08/17 04:26:23;;;;;;;2.30;1.50;;;13.40;99.90;;;11.99;100.00;100462.75;2754988;30;119386;-84
2021/08/17 04:32:01;;;;;;;1.63;1.27;;;13.40;99.90;;;11.99;100.00;100471.63;2735006;30;132391;-82
2021/08/17 04:34:38;;;;;;;4.37;2.03;;;13.40;99.90;;;12.00;100.00;100477.81;2686964;30;130370;-83
2021/08/17 04:37:08;;;;;;;4.63;1.33;;;14.50;99.90;;;12.04;100.00;100484.53;2656818;30;131750;-84
2021/08/17 04:39:38;;;;;;;1.63;1.33;;;14.50;99.90;;;12.07;100.00;100473.50;2659305;30;132057;-84
2021/08/17 04:42:10;;;;;;;2.70;1.07;;;13.50;99.90;;;12.08;100.00;100475.19;2681412;30;132473;-81
2021/08/17 04:44:40;;;;;;;2.53;1.47;;;13.50;99.90;;;12.13;100.00;100486.25;2662882;30;131955;-82
2021/08/17 04:47:09;;;;;;;1.70;1.17;;;13.50;99.90;;;12.12;100.00;100488.09;2657951;30;33903;-83
2021/08/17 04:49:41;;;;;;;2.20;1.33;;;14.30;99.90;;;12.14;100.00;100479.88;2656090;30;132186;31
2021/08/17 04:52:09;;;;;;;3.37;1.87;;;13.60;99.90;;;12.12;100.00;100477.34;2657313;30;56664;-82
2021/08/17 04:54:39;;;;;;;1.70;1.60;;;13.60;99.90;;;12.17;100.00;100492.97;2653606;30;126228;-83
2021/08/17 04:57:13;;;;;;;2.43;1.27;;;14.80;99.90;;;12.19;100.00;100496.34;2672443;38;128940;-84
2021/08/17 04:59:42;;;;;;;1.33;1.13;;;14.50;99.90;;;12.29;100.00;100494.34;2673053;31;110152;-83
2021/08/17 05:02:11;;;;;;;1.30;1.20;;;13.60;99.90;;;12.30;100.00;100493.34;2688626;38;47122;-83
2021/08/17 05:04:40;;;;;;;2.10;1.33;;;13.60;99.90;;;12.29;100.00;100488.13;2647388;30;123704;-82
2021/08/17 05:07:09;;;;;;;1.40;1.13;;;13.60;99.90;;;12.30;100.00;100500.56;2699101;30;119692;-83
2021/08/17 05:09:38;;;;;;;1.73;0.97;;;13.60;99.90;;;12.40;100.00;100510.13;2651551;30;131099;-84
2021/08/17 05:12:10;;;;;;;1.77;1.17;;;13.80;99.90;;;12.56;100.00;100501.28;2632042;30;126994;-88
2021/08/17 05:15:16;;;;;;;1.30;1.10;;;12.70;99.90;;;12.66;100.00;100493.06;2658165;30;107112;31
2021/08/17 05:18:32;;;;;;;1.07;1.00;;;13.70;99.90;;;12.73;100.00;100496.78;2677041;30;118694;-83
2021/08/17 05:21:45;;;;;;;5.10;1.63;;;13.80;99.90;;;12.59;100.00;100495.59;2623708;38;131347;-83
2021/08/17 05:24:58;;;;;;;1.80;1.00;;;13.90;99.90;;;12.65;100.00;100499.44;2647502;30;132705;-83
2021/08/17 05:28:15;;;;;;;2.03;1.50;;;13.90;99.90;;;12.62;100.00;100514.00;2734268;30;133120;-86
2021/08/17 05:31:28;;;;;;;1.50;1.40;;;14.00;99.90;;;12.96;100.00;100524.63;2664460;38;130556;-86
2021/08/17 05:37:16;;;;;;;3.33;1.90;;;14.10;99.90;;;13.15;100.00;100515.41;2607129;30;132393;-82
2021/08/17 05:40:30;;;;;;;2.80;1.37;;;14.20;99.90;;;13.17;100.00;100535.75;2645847;30;133221;-83
2021/08/17 05:43:47;;;;;;;1.20;0.93;;;14.30;99.90;;;13.09;100.00;100532.19;2651937;30;131878;-82
2021/08/17 05:46:59;;;;;;;3.70;1.70;;;14.90;99.90;;;13.25;100.00;100530.34;2662132;30;131241;-83
2021/08/17 05:50:13;;;;;;;6.63;1.30;;;14.60;99.90;;;13.02;100.00;100534.69;2650794;30;132264;-87
2021/08/17 05:52:50;;;;;;;6.03;1.30;;;14.80;99.90;;;12.99;100.00;100537.72;2705634;30;131271;-83
2021/08/17 05:55:19;;;;;;;3.17;1.50;;;14.80;99.90;;;12.98;100.00;100541.44;2646428;30;132896;-83
2021/08/17 05:57:57;;;;;;;1.43;1.30;;;14.80;99.90;;;12.95;100.00;100539.06;2659868;30;130281;-84
2021/08/17 06:00:29;;;;;;;1.20;1.00;;;14.80;99.90;;;12.99;100.00;100552.97;2589958;30;131509;-81
2021/08/17 06:02:58;;;;;;;2.67;1.10;;;14.80;99.90;;;13.02;100.00;100558.03;2623131;30;131897;-81
2021/08/17 06:05:27;;;;;;;2.87;1.57;;;14.80;99.90;;;13.09;100.00;100562.59;2629482;30;126684;-81
2021/08/17 06:07:56;;;;;;;1.50;1.23;;;15.90;99.90;;;13.14;100.00;100560.25;2634438;38;116994;-83
2021/08/17 06:10:25;;;;;;;1.20;0.90;;;14.80;99.90;;;13.21;100.00;100568.50;2654093;30;129632;-84
2021/08/17 06:12:54;;;;;;;3.27;1.13;;;14.80;99.90;;;13.24;100.00;100570.81;2672918;38;129678;-82
2021/08/17 06:15:23;;;;;;;2.73;1.30;;;14.90;99.90;;;13.29;100.00;100563.94;2660559;30;126083;-84
2021/08/17 06:18:01;;;;;;;1.23;1.07;;;14.90;99.90;;;13.26;100.00;100558.91;2658094;30;120836;-83
2021/08/17 06:20:31;;;;;;;5.20;1.50;;;14.70;99.90;;;13.28;100.00;100580.25;2712218;30;132408;-83
2021/08/17 06:23:00;;;;;;;2.63;1.50;;;15.00;99.90;;;13.22;100.00;100568.34;2652662;30;131635;-84
2021/08/17 06:25:29;;;;;;;4.97;1.50;;;15.00;99.90;;;13.20;100.00;100569.50;2618686;30;132003;-85
2021/08/17 06:27:58;;;;;;;6.80;1.80;;;15.00;99.90;;;13.16;100.00;100570.84;2633676;30;132465;-85
2021/08/17 06:30:27;;;;;;;1.40;1.30;;;15.00;99.90;;;13.17;100.00;100569.81;2647598;30;133245;-83
2021/08/17 06:32:59;;;;;;;1.90;1.47;;;15.00;99.90;;;13.21;100.00;100581.94;2655224;30;131940;-83
2021/08/17 06:35:28;;;;;;;1.33;1.17;;;15.00;99.90;;;13.18;100.00;100585.78;2654290;30;24484;-83
2021/08/17 06:37:57;;;;;;;3.63;1.73;;;16.00;99.90;;;13.20;100.00;100586.47;2651829;30;117360;-85
2021/08/17 06:40:28;;;;;;;1.10;1.00;;;15.00;99.90;;;13.23;100.00;100590.63;2658969;30;96668;-83
2021/08/17 06:42:57;;;;;;;1.30;1.00;;;14.90;99.90;;;13.25;100.00;100589.47;2629344;30;102905;-85
2021/08/17 06:45:29;;;;;;;2.27;1.30;;;14.90;99.90;;;13.38;100.00;100594.34;2654839;30;91038;31
2021/08/17 06:48:01;;;;;;;2.30;1.50;;;15.00;99.90;;;13.41;100.00;100595.84;2637513;38;110357;-85
2021/08/17 06:50:31;;;;;;;4.30;1.60;;;15.00;99.90;;;13.46;100.00;100582.75;2641334;30;132000;31
2021/08/17 06:53:00;;;;;;;1.70;1.53;;;15.20;99.90;;;13.52;100.00;100579.38;2635757;30;130876;-84
2021/08/17 06:55:28;;;;;;;1.63;1.40;;;15.60;99.90;;;13.56;100.00;100581.56;2685725;30;123620;-86
2021/08/17 07:01:03;;;;;;;0.98;0.90;;;15.20;99.90;;;13.63;100.00;100587.09;2669032;30;131543;-84
2021/08/17 07:04:19;;;;;;;1.97;1.57;;;15.30;99.90;;;13.72;100.00;100590.63;2644262;30;131140;-84
2021/08/17 07:10:07;;;;;;;3.40;1.90;;;15.30;99.90;;;13.97;100.00;100584.19;2677647;30;132824;-85
2021/08/17 07:13:20;;;;;;;1.27;1.10;;;16.40;99.90;;;14.19;100.00;100564.59;2648769;30;119451;-82
2021/08/17 07:16:36;;;;;;;1.48;1.38;;;15.60;99.90;;;14.28;100.00;100568.91;2665272;30;129306;-86
2021/08/17 07:19:52;;;;;;;6.00;1.73;;;15.70;99.90;;;14.30;100.00;100531.06;2657163;30;127361;-82
2021/08/17 07:23:05;;;;;;;1.63;1.17;;;15.80;99.90;;;14.37;100.00;100543.63;2652704;30;130534;-84
2021/08/17 07:26:19;;;;;;;3.13;1.15;;;16.00;99.90;;;14.42;100.00;100534.22;2708882;30;131908;-82
2021/08/17 07:29:33;;;;;;;2.08;1.45;;;16.10;99.90;;;14.43;100.00;100520.59;2657590;30;128277;-84
2021/08/17 07:32:46;;;;;;;5.68;1.55;;;16.20;99.90;;;14.36;100.00;100514.19;2652302;30;130504;-83
2021/08/17 07:36:03;;;;;;;1.00;0.93;;;16.50;99.90;;;14.44;100.00;100535.72;2662728;30;131873;-84
2021/08/17 07:39:17;;;;;;;5.93;1.20;;;16.40;99.90;;;14.44;100.00;100522.25;2661566;30;132071;-83
2021/08/17 07:42:30;;;;;;;1.05;0.85;;;17.20;99.90;;;14.53;100.00;100528.41;2683409;30;131994;-83
2021/08/17 07:47:45;;;;;;;5.60;1.30;;;16.40;99.90;;;14.53;100.00;100518.50;2731503;30;132230;-85
2021/08/17 07:50:16;;;;;;;3.03;1.35;;;16.40;99.90;;;14.79;100.00;100515.44;2663658;30;131948;-84
2021/08/17 07:52:47;;;;;;;2.40;1.25;;;16.50;99.90;;;14.91;100.00;100516.72;2659602;30;132339;-84
2021/08/17 07:55:17;;;;;;;3.78;1.10;;;16.50;99.90;;;14.85;100.00;100508.50;2697917;30;132410;-83
2021/08/17 07:57:47;;;;;;;2.78;1.35;;;16.60;99.90;;;14.85;100.00;100495.84;2677766;30;130077;-85
2021/08/17 08:00:17;;;;;;;2.72;1.27;;;16.70;99.30;;;15.04;100.00;100508.84;2644774;30;131783;-84
2021/08/17 08:02:46;;;;;;;1.17;0.95;;;16.80;99.60;;;14.99;100.00;100496.94;2641729;30;131876;-85
2021/08/17 08:05:15;;;;;;;4.20;1.42;;;17.90;99.70;;;14.91;100.00;100499.69;2667875;30;132254;-81
2021/08/17 08:07:47;;;;;;;2.70;0.98;;;16.90;98.90;;;14.96;100.00;100510.78;2629563;30;127194;-86
2021/08/17 08:10:15;;;;;;;1.92;0.73;;;17.30;99.30;;;14.93;100.00;100527.31;2657214;30;124403;-85
2021/08/17 08:12:44;;;;;;;1.95;1.17;;;17.80;99.50;;;14.77;100.00;100514.78;2713270;30;126714;-84
2021/08/17 08:15:14;;;;;;;1.75;1.38;;;16.90;98.80;;;14.60;100.00;100514.06;2636364;38;128537;-82
2021/08/17 08:17:43;;;;;;;1.73;1.42;;;16.80;98.50;;;14.54;100.00;100532.78;2632254;30;131292;-82
2021/08/17 08:20:15;;;;;;;7.75;1.48;;;16.80;98.50;;;14.49;100.00;100536.00;2640927;30;131641;-83
2021/08/17 08:22:47;;;;;;;4.25;2.05;;;15.80;98.50;;;14.42;100.00;100545.81;2638079;30;130201;-83
2021/08/17 08:25:16;;;;;;;1.35;1.23;;;16.60;98.50;;;14.38;100.00;100542.59;2663595;30;131371;-85
2021/08/17 08:27:45;;;;;;;5.72;1.27;;;16.60;98.50;;;14.40;100.00;100553.22;2689015;30;132789;-85
2021/08/17 08:30:16;;;;;;;1.73;1.05;;;16.50;99.10;;;14.44;100.00;100565.34;2623796;30;133309;-82
2021/08/17 08:32:46;;;;;;;2.97;1.33;;;16.40;98.90;;;14.46;100.00;100562.47;2661330;30;131539;-86
2021/08/17 08:35:15;;;;;;;2.80;1.50;;;17.10;99.40;;;14.50;100.00;100563.78;2650367;30;133052;-83
2021/08/17 08:37:46;;;;;;;4.70;2.33;;;16.40;99.00;;;14.59;100.00;100541.16;2665042;30;132619;-87
2021/08/17 08:40:16;;;;;;;3.50;1.40;;;17.50;99.00;;;14.53;100.00;100555.34;2669514;30;132948;-81
2021/08/17 08:42:48;;;;;;;1.88;1.15;;;16.50;98.70;;;14.48;100.00;100549.66;2619445;30;132637;-84
2021/08/17 08:45:17;;;;;;;4.10;1.65;;;16.50;98.60;;;14.42;100.00;100553.06;2664296;30;133215;-82
2021/08/17 08:47:47;;;;;;;7.43;1.40;;;16.50;98.60;;;14.38;100.00;100557.91;2588382;30;131876;-87
2021/08/17 08:50:17;;;;;;;1.05;1.00;;;16.40;98.70;;;14.35;100.00;100563.63;2691426;30;132434;-82
2021/08/17 08:52:49;;;;;;;1.63;1.20;;;16.50;98.80;;;14.28;100.00;100566.22;2716338;30;132667;-81
2021/08/17 08:55:18;;;;;;;1.55;1.23;;;16.40;98.50;;;14.27;100.00;100559.16;2689461;30;133498;-83
2021/08/17 08:57:46;;;;;;;2.38;1.65;;;16.30;98.50;;;14.26;100.00;100567.41;2710293;30;133031;-81
2021/08/17 09:02:46;;;;;;;1.77;1.40;;;16.20;98.20;;;14.34;100.00;100568.19;2699889;30;133103;-82
2021/08/17 09:05:16;;;;;;;2.13;1.67;;;16.20;98.40;;;14.35;100.00;100574.41;2623747;30;133484;-82
2021/08/17 09:07:50;;;;;;;4.90;1.50;;;16.20;98.60;;;14.24;100.00;100567.56;2635028;30;133529;-84
2021/08/17 09:10:23;;;;;;;2.25;1.17;;;16.20;98.80;;;14.23;100.00;100568.56;2615451;30;133358;-81
2021/08/17 09:12:55;;;;;;;3.42;1.38;;;17.10;99.10;;;14.24;100.00;100582.88;2678328;30;133637;-86
2021/08/17 09:15:30;;;;;;;2.15;1.83;;;17.20;99.20;;;14.22;100.00;100542.66;2645576;30;133218;-83
2021/08/17 09:18:05;;;;;;;2.67;1.08;;;16.10;98.70;;;14.21;100.00;100537.50;2656295;30;134967;-81
2021/08/17 09:20:40;;;;;;;0.95;0.90;;;16.10;98.50;;;14.26;100.00;100564.69;2705705;30;133421;-87
2021/08/17 09:23:26;;;;;;;6.75;1.23;;;16.10;98.60;;;14.44;100.00;100564.50;2661972;30;135429;-83
2021/08/17 09:25:57;;;;;;;2.28;1.45;;;16.10;98.80;;;14.55;100.00;100567.63;2682436;30;134290;-84
2021/08/17 09:28:30;;;;;;;2.25;1.52;;;16.20;98.70;;;14.60;100.00;100551.75;2682530;30;134901;-83
2021/08/17 09:31:06;;;;;;;2.17;1.20;;;16.10;98.40;;;14.71;100.00;100547.84;2612210;30;135192;31
2021/08/17 09:33:40;;;;;;;4.45;1.27;;;17.40;98.40;;;14.60;100.00;100540.97;2626152;30;133781;-83
2021/08/17 09:36:11;;;;;;;3.65;1.73;;;16.50;97.70;;;14.61;100.00;100539.13;2635946;30;133659;-82
2021/08/17 09:38:43;;;;;;;3.30;1.30;;;16.50;97.20;;;14.52;100.00;100530.28;2629367;30;134011;-85
2021/08/17 09:41:23;;;;;;;6.03;1.60;;;16.50;97.30;;;14.56;100.00;100552.31;2681361;30;135187;-83
2021/08/17 09:44:02;;;;;;;1.90;1.20;;;16.50;97.30;;;14.53;100.00;100548.13;2681179;30;133001;-83
2021/08/17 09:46:34;;;;;;;5.72;1.10;;;16.50;97.40;;;14.53;100.00;100558.88;2605854;30;137661;-84
2021/08/17 09:49:20;;;;;;;5.28;1.63;;;16.50;97.50;;;14.44;100.00;100573.41;2604993;30;133454;-84
2021/08/17 09:51:49;;;;;;;3.63;1.92;;;16.50;96.90;;;14.46;100.00;100546.31;2690116;30;134386;-91
2021/08/17 09:54:27;;;;;;;4.70;1.50;;;16.40;96.70;;;14.51;100.00;100557.38;2783591;30;132937;31
2021/08/17 09:56:57;;;;;;;2.90;1.53;;;16.40;96.80;;;14.59;100.00;100558.16;2632651;30;134465;31
2021/08/17 09:59:28;;;;;;;1.73;1.40;;;16.40;96.80;;;14.63;100.00;100556.78;2657493;38;135022;-86
2021/08/17 10:01:57;;;;;;;2.45;1.77;;;17.50;97.10;;;14.68;100.00;100540.94;2607459;30;137987;-85
2021/08/17 10:04:28;;;;;;;4.13;1.45;;;17.40;96.80;;;14.69;100.00;100531.03;2719648;30;131840;-84
2021/08/17 10:07:01;;;;;;;2.13;1.30;;;15.60;95.70;;;14.80;100.00;100519.00;2659553;38;134408;-84
2021/08/17 10:09:36;;;;;;;3.50;1.85;;;17.50;96.40;;;14.83;100.00;100526.72;2668163;30;135768;-83
2021/08/17 10:12:08;;;;;;;3.72;1.63;;;16.90;96.00;;;14.96;100.00;100535.03;2640813;30;132305;-81
2021/08/17 10:14:37;;;;;;;2.55;1.27;;;16.70;96.10;;;15.05;100.00;100542.88;2617769;30;132929;-83
2021/08/17 10:17:06;;;;;;;2.97;1.45;;;16.80;96.00;;;15.00;100.00;100523.69;2612090;30;132417;-84
2021/08/17 10:22:08;;;;;;;11.02;2.00;;;16.90;95.40;;;15.11;100.00;100514.34;2618992;30;134935;-82
2021/08/17 10:24:43;;;;;;;11.27;1.50;;;16.90;95.30;;;15.16;100.00;100511.94;2637940;30;132190;-83
2021/08/17 10:27:26;;;;;;;8.27;1.48;;;17.00;95.30;;;15.12;100.00;100490.91;2653263;30;132129;-84
2021/08/17 10:30:02;;;;;;;4.00;1.60;;;17.10;94.50;;;15.26;100.00;100499.03;2598856;30;132152;-84
2021/08/17 10:32:57;;;;;;;2.75;1.85;;;17.10;94.70;;;15.37;100.00;100482.41;2630232;38;131413;-85
2021/08/17 10:35:56;;;;;;;6.03;1.48;;;17.50;94.50;;;15.38;100.00;100459.81;2615262;30;131556;-85
2021/08/17 10:39:39;;;;;;;2.97;1.48;;;17.30;93.70;;;15.52;100.00;100460.84;2621756;30;133258;-85
2021/08/17 10:43:10;;;;;;;2.78;1.27;;;17.40;93.10;;;15.75;100.00;100434.63;2626341;30;130985;-84
2021/08/17 10:46:25;;;;;;;3.67;2.03;;;17.50;92.60;;;15.77;100.00;100432.59;2656939;30;132931;-83
2021/08/17 10:50:05;;;;;;;1.50;1.27;;;17.70;92.00;;;15.81;100.00;100414.19;2602769;30;133062;-84
2021/08/17 10:53:25;;;;;;;3.63;1.27;;;17.70;91.60;;;15.83;100.00;100412.09;2602506;30;134340;-82
2021/08/17 10:56:42;;;;;;;4.68;1.65;;;17.70;91.20;;;15.96;100.00;100406.88;2635415;30;132587;-84
2021/08/17 11:00:17;;;;;;;3.65;1.55;;;17.80;91.20;;;16.01;100.00;100388.25;2593731;30;131987;-83
2021/08/17 11:03:52;;;;;;;2.28;1.33;;;17.90;91.10;;;16.12;100.00;100385.03;2619881;30;128691;-83
2021/08/17 11:07:41;;;;;;;2.70;1.40;;;18.00;90.60;;;16.11;100.00;100390.63;2636848;30;117739;-83
2021/08/17 11:11:02;;;;;;;2.47;0.90;;;18.10;90.00;;;15.96;100.00;100357.44;2673247;30;131162;-83
2021/08/17 11:14:36;;;;;;;2.88;1.00;;;18.10;86.80;;;16.03;100.00;100364.63;2635815;30;130513;-84
2021/08/17 11:17:53;;;;;;;2.80;1.20;;;18.10;86.30;;;16.12;100.00;100336.47;2595829;38;132760;-83
2021/08/17 11:21:16;;;;;;;3.17;1.27;;;18.10;85.50;;;16.45;100.00;100344.84;2714941;30;131909;-81
2021/08/17 11:24:48;;;;;;;3.45;1.05;;;19.20;86.00;;;16.78;100.00;100322.72;2653761;30;132108;-81
2021/08/17 11:28:02;;;;;;;2.03;1.10;;;18.40;85.80;;;16.88;100.00;100293.47;2631022;30;133195;-84
2021/08/17 11:31:19;;;;;;;2.25;1.30;;;18.60;84.80;;;16.88;100.00;100279.94;2608676;30;132095;-83
2021/08/17 11:34:43;;;;;;;1.90;1.58;;;18.70;84.20;;;16.99;100.00;100284.78;2596376;30;140555;-83
2021/08/17 11:37:58;;;;;;;0.80;0.65;;;18.90;83.70;;;16.94;100.00;100265.63;2587644;30;131391;-82
2021/08/17 11:41:11;;;;;;;1.95;1.45;;;19.00;81.10;;;16.88;100.00;100255.63;2597443;30;132075;-83
2021/08/17 11:44:45;;;;;;;3.10;1.80;;;19.20;77.70;;;16.99;100.00;100238.00;2644116;30;132527;-83
2021/08/17 11:48:00;;;;;;;1.95;1.65;;;19.20;76.40;;;17.00;100.00;100232.41;2617142;30;131928;-80
2021/08/17 11:51:25;;;;;;;1.98;1.77;;;19.60;76.30;;;17.26;100.00;100220.03;2594523;30;132770;-81
2021/08/17 11:54:38;;;;;;;1.80;1.70;;;19.30;76.00;;;17.20;100.00;100217.06;2613595;30;132404;-82
2021/08/17 11:57:55;;;;;;;1.83;1.42;;;19.50;74.40;;;17.09;100.00;100195.19;2637103;30;132638;-80
2021/08/17 12:01:08;;;;;;;2.30;1.27;;;19.60;71.50;;;17.14;100.00;100204.38;2577105;30;133217;-82
2021/08/17 12:04:34;;;;;;;2.05;1.42;;;19.60;71.10;;;17.56;100.00;100184.28;2597096;30;133384;-81